createdAt,value
2017-03-01T00:07:47.439Z,2.6
2017-03-01T00:18:01.363Z,2.7
2017-03-01T00:28:15.094Z,2.9
2017-03-01T00:38:28.625Z,2.9
2017-03-01T00:48:43.086Z,3
2017-03-01T00:58:57.099Z,3.1
2017-03-01T01:09:11.734Z,3.2
2017-03-01T01:19:26.638Z,3.5
2017-03-01T01:29:40.225Z,3.6
2017-03-01T01:39:53.291Z,3.6
2017-03-01T01:50:07.410Z,3.5
2017-03-01T02:00:21.077Z,3.5
2017-03-01T02:10:34.744Z,3.3
2017-03-01T02:20:49.000Z,3.3
2017-03-01T02:31:02.583Z,3.3
2017-03-01T02:41:16.923Z,3.3
2017-03-01T02:51:31.573Z,3.1
2017-03-01T03:01:44.957Z,3
2017-03-01T03:11:59.790Z,2.9
2017-03-01T03:22:14.036Z,3
2017-03-01T03:32:28.324Z,3
2017-03-01T03:42:42.130Z,3
2017-03-01T03:52:56.775Z,3
2017-03-01T04:03:10.915Z,3.1
2017-03-01T04:13:25.657Z,3.2
2017-03-01T04:23:40.448Z,3.2
2017-03-01T04:33:54.470Z,3.3
2017-03-01T04:44:07.961Z,3.4
2017-03-01T04:54:21.458Z,3.5
2017-03-01T05:04:36.260Z,3.6
2017-03-01T05:14:50.285Z,3.6
2017-03-01T05:25:03.885Z,3.6
2017-03-01T05:35:18.945Z,3.7
2017-03-01T05:45:32.575Z,3.7
2017-03-01T05:55:45.833Z,3.8
2017-03-01T06:05:59.875Z,3.7
2017-03-01T06:16:13.083Z,3.7
2017-03-01T06:26:27.147Z,3.9
2017-03-01T06:36:40.605Z,3.9
2017-03-01T06:46:55.528Z,4.2
2017-03-01T06:57:09.095Z,4.5
2017-03-01T07:07:22.581Z,4.7
2017-03-01T07:17:37.052Z,5
2017-03-01T07:27:50.471Z,5.6
2017-03-01T07:38:03.779Z,5.9
2017-03-01T07:48:17.835Z,5.9
2017-03-01T07:58:32.832Z,5.8
2017-03-01T08:08:46.408Z,5.7
2017-03-01T08:19:00.539Z,5.9
2017-03-01T08:29:14.627Z,6.1
2017-03-01T08:39:29.047Z,6.3
2017-03-01T08:49:42.848Z,6.2
2017-03-01T08:59:56.850Z,6
2017-03-01T09:10:09.950Z,6
2017-03-01T09:20:23.626Z,6.2
2017-03-01T09:30:39.024Z,6.3
2017-03-01T09:40:51.810Z,6.2
2017-03-01T09:51:05.279Z,7.1
2017-03-01T10:01:19.196Z,7.3
2017-03-01T10:11:32.807Z,7.2
2017-03-01T10:21:47.243Z,7.3
2017-03-01T10:32:01.003Z,7.2
2017-03-01T10:42:15.644Z,6.8
2017-03-01T10:52:28.928Z,6.4
2017-03-01T11:02:42.819Z,6.3
2017-03-01T11:12:56.184Z,5.7
2017-03-01T11:23:09.431Z,5.7
2017-03-01T11:33:22.935Z,5.5
2017-03-01T11:43:36.315Z,5.7
2017-03-01T11:53:50.769Z,6.2
2017-03-01T12:04:05.350Z,6.5
2017-03-01T12:14:20.077Z,6.6
2017-03-01T12:24:33.659Z,7.5
2017-03-01T12:34:48.522Z,8
2017-03-01T12:45:03.437Z,8.6
2017-03-01T12:55:18.002Z,7.9
2017-03-01T13:05:32.407Z,7.7
2017-03-01T13:15:47.469Z,7.6
2017-03-01T13:26:00.955Z,8.1
2017-03-01T13:36:16.029Z,7.8
2017-03-01T13:46:30.593Z,8.8
2017-03-01T13:56:45.741Z,8.5
2017-03-01T14:06:59.485Z,9.1
2017-03-01T14:17:14.259Z,9.1
2017-03-01T14:27:27.020Z,9.5
2017-03-01T14:37:41.240Z,9.1
2017-03-01T14:47:55.690Z,8.8
2017-03-01T14:58:09.263Z,8.7
2017-03-01T15:08:23.403Z,9.1
2017-03-01T15:18:38.489Z,8.9
2017-03-01T15:28:51.811Z,8.7
2017-03-01T15:39:06.766Z,8.6
2017-03-01T15:49:21.105Z,8.5
2017-03-01T15:59:34.684Z,8.4
2017-03-01T16:09:49.532Z,8.2
2017-03-01T16:20:02.710Z,8.1
2017-03-01T16:30:16.696Z,8.1
2017-03-01T16:40:31.059Z,8.3
2017-03-01T16:50:43.769Z,8.3
2017-03-01T17:00:57.418Z,8
2017-03-01T17:11:11.070Z,7.2
2017-03-01T17:21:24.409Z,6.6
2017-03-01T17:31:39.396Z,6.3
2017-03-01T17:41:53.796Z,6.2
2017-03-01T17:52:07.907Z,6.1
2017-03-01T18:02:21.932Z,5.9
2017-03-01T18:12:36.315Z,5.7
2017-03-01T18:22:49.765Z,5.6
2017-03-01T18:33:04.273Z,5.5
2017-03-01T18:43:18.459Z,5.5
2017-03-01T18:53:32.922Z,5.7
2017-03-01T19:03:46.457Z,5.9
2017-03-01T19:13:59.590Z,6
2017-03-01T19:24:14.527Z,6.2
2017-03-01T19:34:29.482Z,6.3
2017-03-01T19:44:42.530Z,6.2
2017-03-01T19:54:56.537Z,6.4
2017-03-01T20:05:09.447Z,6.5
2017-03-01T20:15:24.382Z,6.7
2017-03-01T20:25:39.139Z,6.5
2017-03-01T20:35:52.759Z,6.5
2017-03-01T20:46:06.712Z,6.6
2017-03-01T20:56:20.531Z,6.4
2017-03-01T21:06:34.132Z,6.3
2017-03-01T21:16:48.428Z,6.3
2017-03-01T21:27:02.380Z,6.2
2017-03-01T21:37:17.212Z,6.2
2017-03-01T21:47:31.433Z,5.9
2017-03-01T21:57:45.043Z,5.9
2017-03-01T22:07:59.874Z,5.8
2017-03-01T22:18:15.580Z,5.7
2017-03-01T22:28:28.323Z,5.9
2017-03-01T22:38:42.146Z,5.8
2017-03-01T22:48:56.197Z,5.8
2017-03-01T22:59:09.696Z,5.8
2017-03-01T23:09:23.518Z,5.8
2017-03-01T23:19:36.744Z,5.8
2017-03-01T23:29:50.195Z,5.8
2017-03-01T23:40:05.162Z,5.7
2017-03-01T23:50:19.350Z,5.7
